createdAt,value
2023-04-01T00:00:23.761Z,7.80
2023-04-01T00:03:11.512Z,8.10
2023-04-01T00:05:39.388Z,8.20
2023-04-01T00:08:07.209Z,7.10
2023-04-01T00:10:34.996Z,6.40
2023-04-01T00:13:02.817Z,7.80
2023-04-01T00:15:30.950Z,7.90
2023-04-01T00:17:59.996Z,8.00
2023-04-01T00:20:28.688Z,7.10
2023-04-01T00:22:57.123Z,7.40
2023-04-01T00:25:25.277Z,7.10
2023-04-01T00:27:53.102Z,8.20
2023-04-01T00:30:21.108Z,7.00
2023-04-01T00:32:52.225Z,6.60
2023-04-01T00:35:20.275Z,6.10
2023-04-01T00:37:48.473Z,6.00
2023-04-01T00:40:31.138Z,7.00
2023-04-01T00:42:59.383Z,7.40
2023-04-01T00:45:45.642Z,7.00
2023-04-01T00:48:34.522Z,6.80
2023-04-01T00:51:05.814Z,6.40
2023-04-01T00:53:35.880Z,6.40
2023-04-01T00:56:06.002Z,7.00
2023-04-01T00:58:36.435Z,7.20
2023-04-01T01:01:04.540Z,7.20
2023-04-01T01:03:32.471Z,7.40
2023-04-01T01:06:24.228Z,6.60
2023-04-01T01:09:08.481Z,7.50
2023-04-01T01:11:49.440Z,7.00
2023-04-01T01:14:20.291Z,8.10
2023-04-01T01:16:53.496Z,7.20
2023-04-01T01:19:34.906Z,7.10
2023-04-01T01:22:20.910Z,8.00
2023-04-01T01:25:11.971Z,6.70
2023-04-01T01:27:41.872Z,7.70
2023-04-01T01:30:25.816Z,7.70
2023-04-01T01:33:02.591Z,7.70
2023-04-01T01:35:33.899Z,7.70
2023-04-01T01:38:08.555Z,6.90
2023-04-01T01:40:37.821Z,7.30
2023-04-01T01:43:10.009Z,7.30
2023-04-01T01:45:40.556Z,8.40
2023-04-01T01:48:10.154Z,7.80
2023-04-01T01:50:38.819Z,7.20
2023-04-01T01:53:07.747Z,7.80
2023-04-01T01:55:39.472Z,7.30
2023-04-01T01:58:11.295Z,8.90
2023-04-01T02:00:39.919Z,7.60
2023-04-01T02:03:08.284Z,7.90
2023-04-01T02:05:36.749Z,8.10
2023-04-01T02:08:07.982Z,7.40
2023-04-01T02:10:37.764Z,7.70
2023-04-01T02:13:09.006Z,8.10
2023-04-01T02:15:38.629Z,8.10
2023-04-01T02:18:06.416Z,9.00
2023-04-01T02:20:35.759Z,8.90
2023-04-01T02:23:04.257Z,9.10
2023-04-01T02:25:35.282Z,9.50
2023-04-01T02:28:05.051Z,9.60
2023-04-01T02:30:34.981Z,10.20
2023-04-01T02:33:04.108Z,9.70
2023-04-01T02:35:33.908Z,9.90
2023-04-01T02:38:02.485Z,9.50
2023-04-01T02:40:30.564Z,9.40
2023-04-01T02:42:58.881Z,9.40
2023-04-01T02:45:26.741Z,10.00
2023-04-01T02:49:47.793Z,8.70
2023-04-01T02:52:15.626Z,9.50
2023-04-01T02:54:43.444Z,8.10
2023-04-01T02:57:11.608Z,8.50
2023-04-01T02:59:39.569Z,9.00
2023-04-01T03:02:07.898Z,7.90
2023-04-01T03:04:36.100Z,8.60
2023-04-01T03:07:03.909Z,8.50
2023-04-01T03:09:31.692Z,7.50
2023-04-01T03:11:59.468Z,7.80
2023-04-01T03:14:27.312Z,9.10
2023-04-01T03:16:55.150Z,8.40
2023-04-01T03:19:23.057Z,8.10
2023-04-01T03:21:51.023Z,7.30
2023-04-01T03:24:18.829Z,7.40
2023-04-01T03:26:46.609Z,7.80
2023-04-01T03:29:17.063Z,7.70
2023-04-01T03:31:45.146Z,7.20
2023-04-01T03:34:13.004Z,6.70
2023-04-01T03:36:40.923Z,7.00
2023-04-01T03:39:08.910Z,6.20
2023-04-01T03:41:38.504Z,6.20
2023-04-01T03:44:09.120Z,7.40
2023-04-01T03:46:36.932Z,7.10
2023-04-01T03:49:12.402Z,6.50
2023-04-01T03:51:41.120Z,6.20
2023-04-01T03:54:09.275Z,6.30
2023-04-01T03:56:37.449Z,7.00
2023-04-01T03:59:06.504Z,6.90
2023-04-01T04:01:34.452Z,6.50
2023-04-01T04:04:02.413Z,6.70
2023-04-01T04:06:30.453Z,6.50
2023-04-01T04:08:58.482Z,6.80
2023-04-01T04:11:29.264Z,6.00
2023-04-01T04:13:57.973Z,5.90
2023-04-01T04:16:26.494Z,6.30
2023-04-01T04:18:54.408Z,5.90
2023-04-01T04:21:22.275Z,6.20
2023-04-01T04:23:50.042Z,5.40
2023-04-01T04:26:18.146Z,5.60
2023-04-01T04:28:46.261Z,6.50
2023-04-01T04:31:19.180Z,6.00
2023-04-01T04:33:46.938Z,6.00
2023-04-01T04:36:15.076Z,6.10
2023-04-01T04:38:42.912Z,5.50
2023-04-01T04:41:12.853Z,6.40
2023-04-01T04:43:41.395Z,6.40
2023-04-01T04:46:09.647Z,6.50
2023-04-01T04:48:38.136Z,6.70
2023-04-01T04:51:06.212Z,6.10
2023-04-01T04:53:34.053Z,5.90
2023-04-01T04:56:01.791Z,6.00
2023-04-01T04:58:29.602Z,7.00
2023-04-01T05:00:57.627Z,6.70
2023-04-01T05:03:26.006Z,5.70
2023-04-01T05:05:54.714Z,6.00
2023-04-01T05:08:22.723Z,6.40
2023-04-01T05:10:51.427Z,6.00
2023-04-01T05:13:19.319Z,6.80
2023-04-01T05:15:47.163Z,7.10
2023-04-01T05:18:15.022Z,5.90
2023-04-01T05:20:53.145Z,6.30
2023-04-01T05:23:22.263Z,6.00
2023-04-01T05:25:51.050Z,6.50
2023-04-01T05:28:18.908Z,7.20
2023-04-01T05:30:46.995Z,6.80
2023-04-01T05:33:14.850Z,6.70
2023-04-01T05:35:42.716Z,8.00
2023-04-01T05:38:10.542Z,7.10
2023-04-01T05:40:38.521Z,7.30
2023-04-01T05:43:06.505Z,7.70
2023-04-01T05:45:35.163Z,9.10
2023-04-01T05:48:03.336Z,6.30
2023-04-01T05:50:31.201Z,6.20
2023-04-01T05:52:59.100Z,5.90
2023-04-01T05:55:26.986Z,5.80
2023-04-01T05:57:55.033Z,6.60
2023-04-01T06:00:22.999Z,6.30
2023-04-01T06:02:51.132Z,5.60
2023-04-01T06:05:20.559Z,6.00
2023-04-01T06:07:48.743Z,6.80
2023-04-01T06:10:18.593Z,7.10
2023-04-01T06:12:50.111Z,6.30
2023-04-01T06:15:38.116Z,6.30
2023-04-01T06:18:24.690Z,5.50
2023-04-01T06:21:02.656Z,5.20
2023-04-01T06:23:30.713Z,4.90
2023-04-01T06:26:12.836Z,4.90
2023-04-01T06:28:40.728Z,4.60
2023-04-01T06:31:17.956Z,4.70
2023-04-01T06:34:02.725Z,5.50
2023-04-01T06:36:33.770Z,5.50
2023-04-01T06:39:20.762Z,6.10
2023-04-01T06:42:00.714Z,5.00
2023-04-01T06:44:34.747Z,5.50
2023-04-01T06:47:21.514Z,4.90
2023-04-01T06:49:57.827Z,5.40
2023-04-01T06:52:37.164Z,5.20
2023-04-01T06:55:41.751Z,4.80
2023-04-01T06:58:14.889Z,4.30
2023-04-01T07:00:45.889Z,4.70
2023-04-01T07:03:23.029Z,5.10
2023-04-01T07:05:51.699Z,4.90
2023-04-01T07:08:23.707Z,5.00
2023-04-01T07:11:00.886Z,4.30
2023-04-01T07:13:42.537Z,4.40
2023-04-01T07:16:20.197Z,5.00
2023-04-01T07:18:51.224Z,5.50
2023-04-01T07:21:24.616Z,5.90
2023-04-01T07:23:53.186Z,6.50
2023-04-01T07:26:22.649Z,6.80
2023-04-01T07:28:53.314Z,7.60
2023-04-01T07:31:29.090Z,8.50
2023-04-01T07:34:05.439Z,8.20
2023-04-01T07:36:46.664Z,7.30
2023-04-01T07:39:28.991Z,6.90
2023-04-01T07:41:59.836Z,7.60
2023-04-01T07:44:36.159Z,7.80
2023-04-01T07:47:11.132Z,7.80
2023-04-01T07:49:57.610Z,7.30
2023-04-01T07:52:31.579Z,7.20
2023-04-01T07:55:06.590Z,6.90
2023-04-01T07:57:34.334Z,7.10
2023-04-01T08:00:14.589Z,8.30
2023-04-01T08:02:45.705Z,8.50
2023-04-01T08:05:13.591Z,8.60
2023-04-01T08:07:57.996Z,9.20
2023-04-01T08:10:31.953Z,8.70
2023-04-01T08:13:07.154Z,9.40
2023-04-01T08:15:53.371Z,8.80
2023-04-01T08:18:39.667Z,9.00
2023-04-01T08:21:13.084Z,7.20
2023-04-01T08:23:59.794Z,7.90
2023-04-01T08:26:32.998Z,7.70
2023-04-01T08:29:04.166Z,9.20
2023-04-01T08:31:34.820Z,8.60
2023-04-01T08:34:05.933Z,7.70
2023-04-01T08:36:36.897Z,6.80
2023-04-01T08:39:15.514Z,5.60
2023-04-01T08:41:56.075Z,5.50
2023-04-01T08:44:35.614Z,4.90
2023-04-01T08:47:21.841Z,4.90
2023-04-01T08:49:52.535Z,5.30
2023-04-01T08:52:20.334Z,4.80
2023-04-01T08:55:06.906Z,3.90
2023-04-01T08:57:37.811Z,4.30
2023-04-01T09:00:15.916Z,4.60
2023-04-01T09:02:46.930Z,5.20
2023-04-01T09:05:33.656Z,4.20
2023-04-01T09:08:20.716Z,3.70
2023-04-01T09:10:51.460Z,3.50
2023-04-01T09:13:22.021Z,4.20
2023-04-01T09:16:02.129Z,3.60
2023-04-01T09:18:36.366Z,3.70
2023-04-01T09:21:22.972Z,2.90
2023-04-01T09:24:00.207Z,3.80
2023-04-01T09:26:48.554Z,4.40
2023-04-01T09:29:17.228Z,4.60
2023-04-01T09:31:51.887Z,4.10
2023-04-01T09:34:43.553Z,3.70
2023-04-01T09:39:37.851Z,3.60
2023-04-01T09:41:09.150Z,3.80
2023-04-01T09:44:00.607Z,3.50
2023-04-01T09:46:47.985Z,4.80
2023-04-01T09:49:18.220Z,5.10
2023-04-01T09:52:05.045Z,6.00
2023-04-01T09:54:38.881Z,6.00
2023-04-01T09:57:06.714Z,6.30
2023-04-01T09:59:37.327Z,6.20
2023-04-01T10:02:23.168Z,6.30
2023-04-01T10:04:54.246Z,5.30
2023-04-01T10:07:40.786Z,6.80
2023-04-01T10:10:27.054Z,5.50
2023-04-01T10:13:03.842Z,5.10
2023-04-01T10:15:39.648Z,5.10
2023-04-01T10:18:25.666Z,6.70
2023-04-01T10:21:06.745Z,7.10
2023-04-01T10:23:46.423Z,6.80
2023-04-01T10:26:34.415Z,7.70
2023-04-01T10:29:17.242Z,7.10
2023-04-01T10:31:45.174Z,7.80
2023-04-01T10:34:31.941Z,6.80
2023-04-01T10:37:17.043Z,6.90
2023-04-01T10:40:08.399Z,6.90
2023-04-01T10:43:06.419Z,7.10
2023-04-01T10:45:44.303Z,8.80
2023-04-01T10:48:24.994Z,10.60
2023-04-01T10:51:06.475Z,10.40
2023-04-01T10:53:42.057Z,12.60
2023-04-01T10:56:29.001Z,12.10
2023-04-01T10:58:57.228Z,9.60
2023-04-01T11:01:25.314Z,11.80
2023-04-01T11:04:02.626Z,13.70
2023-04-01T11:06:45.777Z,15.50
2023-04-01T11:09:44.814Z,13.60
2023-04-01T11:12:20.740Z,13.10
2023-04-01T11:14:53.202Z,15.10
2023-04-01T11:17:43.911Z,15.40
2023-04-01T11:20:32.686Z,13.10
2023-04-01T11:23:21.076Z,13.10
2023-04-01T11:27:45.870Z,10.80
2023-04-01T11:30:32.684Z,11.50
2023-04-01T11:33:00.970Z,13.30
2023-04-01T11:35:36.846Z,11.80
2023-04-01T11:38:05.323Z,15.10
2023-04-01T11:40:49.868Z,14.40
2023-04-01T11:43:34.155Z,15.60
2023-04-01T11:46:20.369Z,14.20
2023-04-01T11:48:54.894Z,14.30
2023-04-01T11:51:30.076Z,13.90
2023-04-01T11:54:17.300Z,12.90
2023-04-01T11:56:45.533Z,14.60
2023-04-01T11:59:16.577Z,13.80
2023-04-01T12:01:44.775Z,16.20
2023-04-01T12:04:24.949Z,13.90
2023-04-01T12:07:01.407Z,15.50
2023-04-01T12:09:44.118Z,16.30
2023-04-01T12:12:16.591Z,18.50
2023-04-01T12:14:51.248Z,19.20
2023-04-01T12:17:46.501Z,17.20
2023-04-01T12:20:23.406Z,18.80
2023-04-01T12:23:06.742Z,20.00
2023-04-01T12:25:44.109Z,19.40
2023-04-01T12:28:18.002Z,20.40
2023-04-01T12:30:48.841Z,18.60
2023-04-01T12:33:16.856Z,19.80
2023-04-01T12:36:05.878Z,21.10
2023-04-01T12:38:36.989Z,19.00
2023-04-01T12:41:08.142Z,20.50
2023-04-01T12:43:51.065Z,16.60
2023-04-01T12:46:43.855Z,16.40
2023-04-01T12:49:17.712Z,19.00
2023-04-01T12:51:45.518Z,19.70
2023-04-01T12:54:25.489Z,37.60
2023-04-01T12:56:56.186Z,31.80
2023-04-01T12:59:43.347Z,17.00
2023-04-01T13:02:11.747Z,16.60
2023-04-01T13:04:51.986Z,18.00
2023-04-01T13:07:58.653Z,14.60
2023-04-01T13:10:32.583Z,14.20
2023-04-01T13:13:06.178Z,18.50
2023-04-01T13:15:37.170Z,17.20
2023-04-01T13:18:34.600Z,16.60
2023-04-01T13:21:17.444Z,15.10
2023-04-01T13:23:51.882Z,16.70
2023-04-01T13:26:19.761Z,21.30
2023-04-01T13:28:54.001Z,19.10
2023-04-01T13:31:21.909Z,17.40
2023-04-01T13:34:05.349Z,14.00
2023-04-01T13:36:52.160Z,15.00
2023-04-01T13:39:39.572Z,15.20
2023-04-01T13:42:07.385Z,14.90
2023-04-01T13:44:48.053Z,14.80
2023-04-01T13:47:30.809Z,16.30
2023-04-01T13:50:08.974Z,14.40
2023-04-01T13:52:37.125Z,12.70
2023-04-01T13:55:07.496Z,13.50
2023-04-01T13:57:50.106Z,14.90
2023-04-01T14:00:25.726Z,11.90
2023-04-01T14:03:12.401Z,14.10
2023-04-01T14:05:43.911Z,18.40
2023-04-01T14:08:30.963Z,20.10
2023-04-01T14:11:01.721Z,25.00
2023-04-01T14:14:01.689Z,21.20
2023-04-01T14:16:38.511Z,21.80
2023-04-01T14:19:09.706Z,21.30
2023-04-01T14:21:44.262Z,23.30
2023-04-01T14:24:32.915Z,17.60
2023-04-01T14:27:03.752Z,12.10
2023-04-01T14:29:49.962Z,13.70
2023-04-01T14:32:33.130Z,18.20
2023-04-01T14:35:16.308Z,14.30
2023-04-01T14:37:44.359Z,35.60
2023-04-01T14:40:35.664Z,33.20
2023-04-01T14:43:09.720Z,19.60
2023-04-01T14:45:51.780Z,12.30
2023-04-01T14:48:35.080Z,13.90
2023-04-01T14:51:06.044Z,11.90
2023-04-01T14:53:39.783Z,10.30
2023-04-01T14:56:07.619Z,9.80
2023-04-01T14:58:46.382Z,8.90
2023-04-01T15:01:32.798Z,9.60
2023-04-01T15:04:22.425Z,10.50
2023-04-01T15:07:26.015Z,10.00
2023-04-01T15:10:06.784Z,10.70
2023-04-01T15:12:35.999Z,10.80
2023-04-01T15:15:29.750Z,9.90
2023-04-01T15:18:11.437Z,11.20
2023-04-01T15:20:44.128Z,10.70
2023-04-01T15:23:37.404Z,9.00
2023-04-01T15:26:12.675Z,8.70
2023-04-01T15:28:59.340Z,9.50
2023-04-01T15:31:31.153Z,8.40
2023-04-01T15:34:06.695Z,8.80
2023-04-01T15:36:46.955Z,11.50
2023-04-01T15:39:21.384Z,11.40
2023-04-01T15:41:52.107Z,9.30
2023-04-01T15:44:34.737Z,8.40
2023-04-01T15:47:08.914Z,8.50
2023-04-01T15:49:43.547Z,9.70
2023-04-01T15:52:15.945Z,9.70
2023-04-01T15:54:46.817Z,9.40
2023-04-01T15:57:21.592Z,9.00
2023-04-01T16:00:01.543Z,8.10
2023-04-01T16:02:45.113Z,9.50
2023-04-01T16:05:22.777Z,9.80
2023-04-01T16:07:57.457Z,9.90
2023-04-01T16:10:45.065Z,11.50
2023-04-01T16:13:19.105Z,10.70
2023-04-01T16:16:10.609Z,10.50
2023-04-01T16:18:44.994Z,11.80
2023-04-01T16:21:12.817Z,12.30
2023-04-01T16:23:43.792Z,15.80
2023-04-01T16:26:18.425Z,14.90
2023-04-01T16:28:48.873Z,12.30
2023-04-01T16:31:26.852Z,12.00
2023-04-01T16:33:57.440Z,15.50
2023-04-01T16:36:31.164Z,14.20
2023-04-01T16:39:20.744Z,13.10
2023-04-01T16:42:07.759Z,9.80
2023-04-01T16:45:06.067Z,10.00
2023-04-01T16:47:38.092Z,9.50
2023-04-01T16:50:06.061Z,11.40
2023-04-01T16:52:52.758Z,9.20
2023-04-01T16:55:21.893Z,13.70
2023-04-01T16:57:57.494Z,13.80
2023-04-01T17:00:25.501Z,14.70
2023-04-01T17:02:53.498Z,13.50
2023-04-01T17:05:23.175Z,11.30
2023-04-01T17:08:11.735Z,8.90
2023-04-01T17:10:48.906Z,8.60
2023-04-01T17:13:16.876Z,9.30
2023-04-01T17:15:47.705Z,8.00
2023-04-01T17:18:22.690Z,9.20
2023-04-01T17:20:58.237Z,9.20
2023-04-01T17:23:37.159Z,10.50
2023-04-01T17:26:16.524Z,13.50
2023-04-01T17:28:51.147Z,16.50
2023-04-01T17:31:37.869Z,13.90
2023-04-01T17:34:12.161Z,6.70
2023-04-01T17:36:43.251Z,9.10
2023-04-01T17:39:34.407Z,10.80
2023-04-01T17:42:19.425Z,11.80
2023-04-01T17:44:53.510Z,11.90
2023-04-01T17:47:23.933Z,9.80
2023-04-01T17:49:55.705Z,8.50
2023-04-01T17:52:26.948Z,10.50
2023-04-01T17:55:05.613Z,10.00
2023-04-01T17:57:52.642Z,9.00
2023-04-01T18:00:52.791Z,7.60
2023-04-01T18:03:28.030Z,7.70
2023-04-01T18:05:55.971Z,8.70
2023-04-01T18:08:33.345Z,9.30
2023-04-01T18:11:21.972Z,9.20
2023-04-01T18:14:01.270Z,8.70
2023-04-01T18:16:49.701Z,10.20
2023-04-01T18:19:44.917Z,8.60
2023-04-01T18:22:26.017Z,8.40
2023-04-01T18:25:00.231Z,7.30
2023-04-01T18:27:38.950Z,7.80
2023-04-01T18:30:21.616Z,8.80
2023-04-01T18:32:59.206Z,8.80
2023-04-01T18:35:51.840Z,10.40
2023-04-01T18:38:33.705Z,9.80
2023-04-01T18:41:41.450Z,8.10
2023-04-01T18:44:28.812Z,7.50
2023-04-01T18:47:30.703Z,10.90
2023-04-01T18:50:17.770Z,9.30
2023-04-01T18:52:51.731Z,13.70
2023-04-01T18:55:38.761Z,9.00
2023-04-01T18:58:30.343Z,7.50
2023-04-01T19:01:12.334Z,8.80
2023-04-01T19:04:02.994Z,8.00
2023-04-01T19:06:49.830Z,7.40
2023-04-01T19:09:32.195Z,6.80
2023-04-01T19:12:24.837Z,6.60
2023-04-01T19:15:04.329Z,7.10
2023-04-01T19:17:46.773Z,7.90
2023-04-01T19:20:22.323Z,8.10
2023-04-01T19:23:17.836Z,6.70
2023-04-01T19:26:05.021Z,9.10
2023-04-01T19:28:35.382Z,8.00
2023-04-01T19:31:12.737Z,8.60
2023-04-01T19:34:05.514Z,8.70
2023-04-01T19:36:47.706Z,5.60
2023-04-01T19:39:28.159Z,8.20
2023-04-01T19:42:00.493Z,9.90
2023-04-01T19:44:34.985Z,10.00
2023-04-01T19:47:32.119Z,25.30
2023-04-01T19:50:24.133Z,18.70
2023-04-01T19:52:59.983Z,12.50
2023-04-01T19:55:42.362Z,5.60
2023-04-01T19:58:24.293Z,7.30
2023-04-01T20:01:04.045Z,6.70
2023-04-01T20:03:51.064Z,7.70
2023-04-01T20:06:52.034Z,6.70
2023-04-01T20:09:36.979Z,6.80
2023-04-01T20:12:15.379Z,6.60
2023-04-01T20:14:53.590Z,6.30
2023-04-01T20:20:32.874Z,6.30
2023-04-01T20:23:14.043Z,7.90
2023-04-01T20:26:16.030Z,8.80
2023-04-01T20:28:46.843Z,8.00
2023-04-01T20:31:27.340Z,8.30
2023-04-01T20:34:25.491Z,7.50
2023-04-01T20:37:20.969Z,7.70
2023-04-01T20:40:13.733Z,5.90
2023-04-01T20:42:58.982Z,6.20
2023-04-01T20:45:32.999Z,6.80
2023-04-01T20:48:15.989Z,6.40
2023-04-01T20:50:54.756Z,6.70
2023-04-01T20:53:28.599Z,7.90
2023-04-01T20:56:12.700Z,6.00
2023-04-01T20:58:59.702Z,8.30
2023-04-01T21:01:28.140Z,7.70
2023-04-01T21:03:58.876Z,5.90
2023-04-01T21:06:29.078Z,6.40
2023-04-01T21:09:04.263Z,7.70
2023-04-01T21:12:04.881Z,7.90
2023-04-01T21:15:02.864Z,6.70
2023-04-01T21:17:52.180Z,7.10
2023-04-01T21:20:32.686Z,7.40
2023-04-01T21:23:06.564Z,8.90
2023-04-01T21:26:40.202Z,9.80
2023-04-01T21:29:24.383Z,7.10
2023-04-01T21:31:52.162Z,8.60
2023-04-01T21:34:39.471Z,5.90
2023-04-01T21:37:26.410Z,6.10
2023-04-01T21:40:26.627Z,5.50
2023-04-01T21:43:19.067Z,5.40
2023-04-01T21:46:05.596Z,5.90
2023-04-01T21:48:49.104Z,6.10
2023-04-01T21:51:29.485Z,5.90
2023-04-01T21:54:19.250Z,5.50
2023-04-01T21:56:59.813Z,6.10
2023-04-01T21:59:32.734Z,6.20
2023-04-01T22:02:12.938Z,7.70
2023-04-01T22:04:47.247Z,6.60
2023-04-01T22:07:19.774Z,5.40
2023-04-01T22:09:53.736Z,5.10
2023-04-01T22:12:30.552Z,6.00
2023-04-01T22:14:59.275Z,5.80
2023-04-01T22:17:27.148Z,6.20
2023-04-01T22:20:12.919Z,7.00
2023-04-01T22:23:01.907Z,8.70
2023-04-01T22:25:48.526Z,7.80
2023-04-01T22:28:30.389Z,7.00
2023-04-01T22:31:02.320Z,11.10
2023-04-01T22:33:34.260Z,8.30
2023-04-01T22:36:02.171Z,9.90
2023-04-01T22:38:30.084Z,9.70
2023-04-01T22:41:10.401Z,11.40
2023-04-01T22:43:44.320Z,14.40
2023-04-01T22:46:15.122Z,12.80
2023-04-01T22:48:46.583Z,9.60
2023-04-01T22:51:33.437Z,8.90
2023-04-01T22:54:19.051Z,8.40
2023-04-01T22:56:53.636Z,9.10
2023-04-01T22:59:53.792Z,7.60
2023-04-01T23:02:31.466Z,7.20
2023-04-01T23:05:02.480Z,8.80
2023-04-01T23:08:01.638Z,9.60
2023-04-01T23:10:48.243Z,13.00
2023-04-01T23:13:26.303Z,8.60
2023-04-01T23:15:54.912Z,7.90
2023-04-01T23:18:26.712Z,10.20
2023-04-01T23:20:54.420Z,8.10
2023-04-01T23:23:31.458Z,9.20
2023-04-01T23:25:59.434Z,8.70
2023-04-01T23:28:34.484Z,8.20
2023-04-01T23:31:03.050Z,6.50
2023-04-01T23:33:31.863Z,7.90
2023-04-01T23:36:07.898Z,7.10
2023-04-01T23:38:37.342Z,7.10
2023-04-01T23:41:06.526Z,5.90
2023-04-01T23:50:15.391Z,6.00
2023-04-01T23:52:48.889Z,5.40
2023-04-01T23:55:18.507Z,5.40
2023-04-01T23:58:01.761Z,4.50
